KOPL/OPL METAR and TAF weather

Enter ICAO airport designator
Station Type Date Time Source
KOPL METAR 2022/06/27 16:55 UTC NOAA

KOPL 271655Z AUTO 03009G15KT 10SM CLR 29/22 A3010 RMK AO2 T02920224


Station Type Date Time Source
KOPL Decoded METAR 2022/06/27 16:55 UTC NOAA

Station name not available
Jun 27, 2022 - 12:55 PM EDT / 2022.06.27 1655 UTC
Wind: from the NNE (030 degrees) at 10 MPH (9 KT) gusting to 17 MPH (15 KT):0
Visibility: 10 mile(s):0
Sky conditions: clear
Temperature: 84.6 F (29.2 C)
Dew Point: 72.3 F (22.4 C)
Relative Humidity: 66%
Pressure (altimeter): 30.1 in. Hg (1019 hPa)
ob: KOPL 271655Z AUTO 03009G15KT 10SM CLR 29/22 A3010 RMK AO2 T02920224
cycle: 17

Station Type Date Time Source
KOPL TAF UTC NOAA

Error!

Example: see airport list